sensor_id;sensor_type;location;lat;lon;timestamp;pressure;altitude;pressure_sealevel;temperature;humidity
73242;BME280;65659;49.234;-2.094;2024-02-15T00:00:26;100278.05;;;15.11;56.24
73242;BME280;65659;49.234;-2.094;2024-02-15T00:02:51;100272.30;;;15.16;56.23
73242;BME280;65659;49.234;-2.094;2024-02-15T00:05:17;100269.14;;;15.11;56.22
73242;BME280;65659;49.234;-2.094;2024-02-15T00:07:42;100264.46;;;15.13;56.16
73242;BME280;65659;49.234;-2.094;2024-02-15T00:10:08;100263.40;;;15.18;56.05
73242;BME280;65659;49.234;-2.094;2024-02-15T00:12:34;100257.10;;;15.12;55.99
73242;BME280;65659;49.234;-2.094;2024-02-15T00:15:00;100261.24;;;15.01;56.07
73242;BME280;65659;49.234;-2.094;2024-02-15T00:17:26;100261.71;;;15.30;55.98
73242;BME280;65659;49.234;-2.094;2024-02-15T00:19:51;100263.32;;;15.29;55.94
73242;BME280;65659;49.234;-2.094;2024-02-15T00:22:17;100255.12;;;15.22;55.95
73242;BME280;65659;49.234;-2.094;2024-02-15T00:24:42;100258.67;;;15.07;55.83
73242;BME280;65659;49.234;-2.094;2024-02-15T00:27:07;100255.77;;;15.61;55.68
73242;BME280;65659;49.234;-2.094;2024-02-15T00:29:32;100258.02;;;15.00;55.82
73242;BME280;65659;49.234;-2.094;2024-02-15T00:31:58;100258.72;;;15.51;55.67
73242;BME280;65659;49.234;-2.094;2024-02-15T00:34:24;100258.56;;;15.54;55.61
73242;BME280;65659;49.234;-2.094;2024-02-15T00:36:50;100255.12;;;14.97;55.58
73242;BME280;65659;49.234;-2.094;2024-02-15T00:39:16;100257.63;;;15.26;55.41
73242;BME280;65659;49.234;-2.094;2024-02-15T00:41:41;100253.37;;;14.95;55.46
73242;BME280;65659;49.234;-2.094;2024-02-15T00:44:08;100251.15;;;14.80;55.58
73242;BME280;65659;49.234;-2.094;2024-02-15T00:46:33;100250.14;;;14.92;55.32
73242;BME280;65659;49.234;-2.094;2024-02-15T00:48:59;100248.35;;;14.99;55.20
73242;BME280;65659;49.234;-2.094;2024-02-15T00:51:25;100249.40;;;15.04;54.96
73242;BME280;65659;49.234;-2.094;2024-02-15T00:53:50;100248.46;;;14.85;55.16
73242;BME280;65659;49.234;-2.094;2024-02-15T00:56:16;100246.01;;;15.11;55.01
73242;BME280;65659;49.234;-2.094;2024-02-15T00:58:41;100244.19;;;15.24;55.13
73242;BME280;65659;49.234;-2.094;2024-02-15T01:01:06;100244.77;;;14.74;55.05
73242;BME280;65659;49.234;-2.094;2024-02-15T01:03:32;100240.27;;;15.03;54.84
73242;BME280;65659;49.234;-2.094;2024-02-15T01:05:57;100239.52;;;14.68;54.91
73242;BME280;65659;49.234;-2.094;2024-02-15T01:08:23;100237.33;;;14.84;54.97
73242;BME280;65659;49.234;-2.094;2024-02-15T01:10:49;100232.88;;;14.91;54.81
73242;BME280;65659;49.234;-2.094;2024-02-15T01:13:14;100226.89;;;14.98;55.03
73242;BME280;65659;49.234;-2.094;2024-02-15T01:15:40;100226.43;;;14.50;55.00
73242;BME280;65659;49.234;-2.094;2024-02-15T01:18:06;100221.23;;;15.07;54.81
73242;BME280;65659;49.234;-2.094;2024-02-15T01:20:31;100219.83;;;14.75;54.87
73242;BME280;65659;49.234;-2.094;2024-02-15T01:22:57;100221.26;;;14.74;54.83
73242;BME280;65659;49.234;-2.094;2024-02-15T01:25:23;100217.75;;;14.61;55.03
73242;BME280;65659;49.234;-2.094;2024-02-15T01:27:48;100205.51;;;14.84;54.95
73242;BME280;65659;49.234;-2.094;2024-02-15T01:30:14;100199.67;;;14.46;54.76
73242;BME280;65659;49.234;-2.094;2024-02-15T01:32:39;100197.93;;;14.69;54.67
73242;BME280;65659;49.234;-2.094;2024-02-15T01:35:06;100194.27;;;14.75;54.86
73242;BME280;65659;49.234;-2.094;2024-02-15T01:37:31;100191.42;;;14.62;54.72
73242;BME280;65659;49.234;-2.094;2024-02-15T01:39:56;100198.41;;;14.89;54.58
73242;BME280;65659;49.234;-2.094;2024-02-15T01:42:22;100197.51;;;14.53;54.76
73242;BME280;65659;49.234;-2.094;2024-02-15T01:44:47;100200.64;;;14.68;54.80
73242;BME280;65659;49.234;-2.094;2024-02-15T01:47:12;100200.05;;;14.87;54.49
73242;BME280;65659;49.234;-2.094;2024-02-15T01:49:38;100196.33;;;14.78;54.55
73242;BME280;65659;49.234;-2.094;2024-02-15T01:52:05;100195.07;;;14.81;54.48
73242;BME280;65659;49.234;-2.094;2024-02-15T01:54:29;100195.02;;;14.85;54.36
73242;BME280;65659;49.234;-2.094;2024-02-15T01:56:54;100195.78;;;14.73;54.47
73242;BME280;65659;49.234;-2.094;2024-02-15T01:59:22;100193.30;;;14.85;54.30
73242;BME280;65659;49.234;-2.094;2024-02-15T02:01:45;100196.50;;;14.50;54.29
73242;BME280;65659;49.234;-2.094;2024-02-15T02:04:10;100198.40;;;14.74;54.30
73242;BME280;65659;49.234;-2.094;2024-02-15T02:06:37;100196.58;;;14.83;54.12
73242;BME280;65659;49.234;-2.094;2024-02-15T02:09:01;100192.03;;;14.87;53.92
73242;BME280;65659;49.234;-2.094;2024-02-15T02:11:28;100191.43;;;14.69;54.18
73242;BME280;65659;49.234;-2.094;2024-02-15T02:13:52;100190.46;;;14.43;54.18
73242;BME280;65659;49.234;-2.094;2024-02-15T02:16:25;100186.06;;;14.53;54.01
73242;BME280;65659;49.234;-2.094;2024-02-15T02:18:44;100175.29;;;14.70;54.03
73242;BME280;65659;49.234;-2.094;2024-02-15T02:21:09;100168.48;;;14.77;53.91
73242;BME280;65659;49.234;-2.094;2024-02-15T02:23:34;100165.39;;;14.49;53.96
73242;BME280;65659;49.234;-2.094;2024-02-15T02:25:59;100165.79;;;14.53;53.90
73242;BME280;65659;49.234;-2.094;2024-02-15T02:28:24;100159.71;;;14.68;54.05
73242;BME280;65659;49.234;-2.094;2024-02-15T02:30:50;100154.22;;;14.72;54.00
73242;BME280;65659;49.234;-2.094;2024-02-15T02:33:15;100155.32;;;14.79;53.89
73242;BME280;65659;49.234;-2.094;2024-02-15T02:35:40;100152.48;;;14.55;53.90
73242;BME280;65659;49.234;-2.094;2024-02-15T02:38:06;100135.26;;;14.90;53.64
73242;BME280;65659;49.234;-2.094;2024-02-15T02:40:31;100138.35;;;14.55;53.87
73242;BME280;65659;49.234;-2.094;2024-02-15T02:42:57;100125.48;;;14.89;53.64
73242;BME280;65659;49.234;-2.094;2024-02-15T02:45:22;100119.62;;;14.88;53.64
73242;BME280;65659;49.234;-2.094;2024-02-15T02:47:47;100110.22;;;14.86;53.60
73242;BME280;65659;49.234;-2.094;2024-02-15T02:50:13;100106.12;;;14.86;53.62
73242;BME280;65659;49.234;-2.094;2024-02-15T02:52:38;100112.31;;;14.71;53.83
73242;BME280;65659;49.234;-2.094;2024-02-15T02:55:04;100124.68;;;14.63;53.89
73242;BME280;65659;49.234;-2.094;2024-02-15T02:57:29;100115.51;;;14.78;53.67
73242;BME280;65659;49.234;-2.094;2024-02-15T02:59:54;100110.44;;;14.80;53.55
73242;BME280;65659;49.234;-2.094;2024-02-15T03:02:19;100108.38;;;14.74;53.57
73242;BME280;65659;49.234;-2.094;2024-02-15T03:04:45;100101.19;;;14.78;53.36
73242;BME280;65659;49.234;-2.094;2024-02-15T03:07:10;100095.52;;;14.58;53.58
73242;BME280;65659;49.234;-2.094;2024-02-15T03:09:36;100089.76;;;14.36;53.49
73242;BME280;65659;49.234;-2.094;2024-02-15T03:12:01;100086.35;;;14.61;53.43
73242;BME280;65659;49.234;-2.094;2024-02-15T03:14:27;100088.67;;;14.58;53.42
73242;BME280;65659;49.234;-2.094;2024-02-15T03:16:52;100085.76;;;14.59;53.32
73242;BME280;65659;49.234;-2.094;2024-02-15T03:19:18;100086.54;;;14.53;53.36
73242;BME280;65659;49.234;-2.094;2024-02-15T03:21:43;100085.73;;;14.57;53.30
73242;BME280;65659;49.234;-2.094;2024-02-15T03:24:09;100078.02;;;14.47;53.39
73242;BME280;65659;49.234;-2.094;2024-02-15T03:26:34;100071.69;;;14.38;53.19
73242;BME280;65659;49.234;-2.094;2024-02-15T03:28:59;100064.12;;;14.53;53.21
73242;BME280;65659;49.234;-2.094;2024-02-15T03:31:25;100061.62;;;14.51;53.20
73242;BME280;65659;49.234;-2.094;2024-02-15T03:33:51;100060.99;;;14.49;53.20
73242;BME280;65659;49.234;-2.094;2024-02-15T03:36:17;100065.03;;;14.32;53.07
73242;BME280;65659;49.234;-2.094;2024-02-15T03:38:42;100056.91;;;14.28;53.05
73242;BME280;65659;49.234;-2.094;2024-02-15T03:41:08;100050.58;;;14.60;52.91
73242;BME280;65659;49.234;-2.094;2024-02-15T03:43:34;100051.46;;;14.61;52.87
73242;BME280;65659;49.234;-2.094;2024-02-15T03:45:59;100052.67;;;14.68;52.75
73242;BME280;65659;49.234;-2.094;2024-02-15T03:48:24;100046.18;;;14.62;52.77
73242;BME280;65659;49.234;-2.094;2024-02-15T03:50:50;100039.39;;;14.70;52.64
73242;BME280;65659;49.234;-2.094;2024-02-15T03:53:15;100033.81;;;14.79;52.42
73242;BME280;65659;49.234;-2.094;2024-02-15T03:55:40;100038.30;;;14.57;52.40
73242;BME280;65659;49.234;-2.094;2024-02-15T03:58:06;100041.25;;;14.70;52.48
73242;BME280;65659;49.234;-2.094;2024-02-15T04:00:31;100044.33;;;14.80;52.26
73242;BME280;65659;49.234;-2.094;2024-02-15T04:02:56;100040.81;;;14.71;52.39
73242;BME280;65659;49.234;-2.094;2024-02-15T04:05:21;100038.36;;;14.98;52.36
73242;BME280;65659;49.234;-2.094;2024-02-15T04:07:47;100038.11;;;14.79;52.24
73242;BME280;65659;49.234;-2.094;2024-02-15T04:10:13;100045.20;;;14.66;52.32
73242;BME280;65659;49.234;-2.094;2024-02-15T04:12:39;100043.41;;;14.58;52.49
73242;BME280;65659;49.234;-2.094;2024-02-15T04:15:04;100042.11;;;14.70;52.27
73242;BME280;65659;49.234;-2.094;2024-02-15T04:17:29;100043.66;;;14.56;52.43
73242;BME280;65659;49.234;-2.094;2024-02-15T04:19:54;100044.47;;;14.63;52.28
73242;BME280;65659;49.234;-2.094;2024-02-15T04:22:20;100042.94;;;14.68;52.18
73242;BME280;65659;49.234;-2.094;2024-02-15T04:24:46;100041.95;;;14.58;52.34
73242;BME280;65659;49.234;-2.094;2024-02-15T04:27:12;100040.65;;;14.52;52.43
73242;BME280;65659;49.234;-2.094;2024-02-15T04:29:37;100037.67;;;14.55;52.39
73242;BME280;65659;49.234;-2.094;2024-02-15T04:32:04;100036.60;;;14.40;52.65
73242;BME280;65659;49.234;-2.094;2024-02-15T04:34:28;100034.55;;;14.46;52.59
73242;BME280;65659;49.234;-2.094;2024-02-15T04:36:53;100029.49;;;14.45;52.57
73242;BME280;65659;49.234;-2.094;2024-02-15T04:39:18;100025.48;;;14.51;52.59
73242;BME280;65659;49.234;-2.094;2024-02-15T04:41:43;100026.41;;;14.59;52.48
73242;BME280;65659;49.234;-2.094;2024-02-15T04:44:09;100026.49;;;14.77;52.68
73242;BME280;65659;49.234;-2.094;2024-02-15T04:46:35;100018.33;;;14.77;52.74
73242;BME280;65659;49.234;-2.094;2024-02-15T04:49:00;100020.03;;;14.42;53.05
73242;BME280;65659;49.234;-2.094;2024-02-15T04:51:26;100017.30;;;14.57;52.97
73242;BME280;65659;49.234;-2.094;2024-02-15T04:53:51;100017.84;;;14.61;52.94
73242;BME280;65659;49.234;-2.094;2024-02-15T04:56:16;100020.50;;;14.60;53.06
73242;BME280;65659;49.234;-2.094;2024-02-15T04:58:42;100018.24;;;14.64;52.95
73242;BME280;65659;49.234;-2.094;2024-02-15T05:01:08;100014.10;;;14.63;53.04
73242;BME280;65659;49.234;-2.094;2024-02-15T05:03:33;100009.03;;;14.75;52.85
73242;BME280;65659;49.234;-2.094;2024-02-15T05:05:58;100003.19;;;14.75;52.96
73242;BME280;65659;49.234;-2.094;2024-02-15T05:08:24;99996.01;;;14.76;52.96
73242;BME280;65659;49.234;-2.094;2024-02-15T05:10:50;99994.04;;;14.81;52.95
73242;BME280;65659;49.234;-2.094;2024-02-15T05:13:16;99992.96;;;14.90;52.89
73242;BME280;65659;49.234;-2.094;2024-02-15T05:15:41;99986.41;;;14.60;53.05
73242;BME280;65659;49.234;-2.094;2024-02-15T05:18:06;99979.31;;;14.92;53.06
73242;BME280;65659;49.234;-2.094;2024-02-15T05:20:32;99978.71;;;14.73;53.01
73242;BME280;65659;49.234;-2.094;2024-02-15T05:22:57;99974.26;;;14.98;53.00
73242;BME280;65659;49.234;-2.094;2024-02-15T05:25:23;99971.85;;;15.05;52.91
73242;BME280;65659;49.234;-2.094;2024-02-15T05:27:49;99969.98;;;15.04;52.95
73242;BME280;65659;49.234;-2.094;2024-02-15T05:30:15;99967.55;;;15.11;52.87
73242;BME280;65659;49.234;-2.094;2024-02-15T05:32:39;99962.93;;;14.69;52.73
73242;BME280;65659;49.234;-2.094;2024-02-15T05:35:06;99959.38;;;15.12;52.82
73242;BME280;65659;49.234;-2.094;2024-02-15T05:37:31;99956.04;;;15.11;52.80
73242;BME280;65659;49.234;-2.094;2024-02-15T05:39:57;99948.43;;;14.95;52.63
73242;BME280;65659;49.234;-2.094;2024-02-15T05:42:22;99938.79;;;15.19;52.62
73242;BME280;65659;49.234;-2.094;2024-02-15T05:44:48;99939.26;;;15.14;52.65
73242;BME280;65659;49.234;-2.094;2024-02-15T05:47:14;99934.95;;;14.89;52.62
73242;BME280;65659;49.234;-2.094;2024-02-15T05:49:40;99934.36;;;14.90;52.55
73242;BME280;65659;49.234;-2.094;2024-02-15T05:52:06;99927.44;;;15.10;52.59
73242;BME280;65659;49.234;-2.094;2024-02-15T05:54:31;99927.48;;;14.86;52.55
73242;BME280;65659;49.234;-2.094;2024-02-15T05:56:57;99924.75;;;15.05;52.59
73242;BME280;65659;49.234;-2.094;2024-02-15T05:59:23;99920.49;;;14.82;52.53
73242;BME280;65659;49.234;-2.094;2024-02-15T06:01:48;99919.62;;;15.06;52.52
73242;BME280;65659;49.234;-2.094;2024-02-15T06:04:15;99921.00;;;15.04;52.53
73242;BME280;65659;49.234;-2.094;2024-02-15T06:06:39;99916.72;;;14.81;52.53
73242;BME280;65659;49.234;-2.094;2024-02-15T06:09:04;99918.16;;;14.95;52.66
73242;BME280;65659;49.234;-2.094;2024-02-15T06:11:30;99918.60;;;14.61;52.50
73242;BME280;65659;49.234;-2.094;2024-02-15T06:13:56;99918.98;;;14.65;52.45
73242;BME280;65659;49.234;-2.094;2024-02-15T06:16:22;99916.16;;;15.13;52.42
73242;BME280;65659;49.234;-2.094;2024-02-15T06:18:47;99914.98;;;15.17;52.35
73242;BME280;65659;49.234;-2.094;2024-02-15T06:21:12;99912.37;;;15.12;52.39
73242;BME280;65659;49.234;-2.094;2024-02-15T06:23:37;99918.59;;;15.17;52.36
73242;BME280;65659;49.234;-2.094;2024-02-15T06:26:03;99918.98;;;15.15;52.37
73242;BME280;65659;49.234;-2.094;2024-02-15T06:28:29;99915.85;;;14.68;52.32
73242;BME280;65659;49.234;-2.094;2024-02-15T06:30:54;99916.06;;;14.96;52.26
73242;BME280;65659;49.234;-2.094;2024-02-15T06:33:19;99913.94;;;14.99;52.22
73242;BME280;65659;49.234;-2.094;2024-02-15T06:35:45;99912.87;;;14.77;52.17
73242;BME280;65659;49.234;-2.094;2024-02-15T06:38:10;99902.33;;;14.75;52.26
73242;BME280;65659;49.234;-2.094;2024-02-15T06:40:36;99901.99;;;15.02;52.17
73242;BME280;65659;49.234;-2.094;2024-02-15T06:43:01;99894.49;;;15.26;52.13
73242;BME280;65659;49.234;-2.094;2024-02-15T06:45:28;99891.39;;;14.78;52.10
73242;BME280;65659;49.234;-2.094;2024-02-15T06:47:53;99882.92;;;15.18;52.18
73242;BME280;65659;49.234;-2.094;2024-02-15T06:50:18;99885.18;;;14.70;52.12
73242;BME280;65659;49.234;-2.094;2024-02-15T06:52:44;99884.50;;;15.14;52.11
73242;BME280;65659;49.234;-2.094;2024-02-15T06:55:09;99883.08;;;14.60;52.22
73242;BME280;65659;49.234;-2.094;2024-02-15T06:57:35;99879.72;;;14.88;52.09
73242;BME280;65659;49.234;-2.094;2024-02-15T07:00:00;99877.09;;;14.62;52.08
73242;BME280;65659;49.234;-2.094;2024-02-15T07:02:25;99877.63;;;15.11;52.03
73242;BME280;65659;49.234;-2.094;2024-02-15T07:04:51;99877.92;;;14.88;51.99
73242;BME280;65659;49.234;-2.094;2024-02-15T07:07:17;99879.01;;;14.76;51.99
73242;BME280;65659;49.234;-2.094;2024-02-15T07:09:42;99878.71;;;14.63;51.84
73242;BME280;65659;49.234;-2.094;2024-02-15T07:12:08;99876.15;;;15.16;51.74
73242;BME280;65659;49.234;-2.094;2024-02-15T07:14:33;99877.69;;;14.63;51.79
73242;BME280;65659;49.234;-2.094;2024-02-15T07:16:58;99877.71;;;14.64;51.66
73242;BME280;65659;49.234;-2.094;2024-02-15T07:19:24;99870.68;;;15.14;51.57
73242;BME280;65659;49.234;-2.094;2024-02-15T07:21:49;99868.02;;;14.64;51.54
73242;BME280;65659;49.234;-2.094;2024-02-15T07:24:15;99866.42;;;14.70;51.36
73242;BME280;65659;49.234;-2.094;2024-02-15T07:26:41;99863.70;;;14.71;51.28
73242;BME280;65659;49.234;-2.094;2024-02-15T07:29:06;99867.76;;;14.75;51.14
73242;BME280;65659;49.234;-2.094;2024-02-15T07:31:32;99867.03;;;14.57;50.95
73242;BME280;65659;49.234;-2.094;2024-02-15T07:33:58;99862.18;;;14.77;51.04
73242;BME280;65659;49.234;-2.094;2024-02-15T07:36:24;99856.37;;;14.78;50.99
73242;BME280;65659;49.234;-2.094;2024-02-15T07:38:50;99846.15;;;14.70;51.06
73242;BME280;65659;49.234;-2.094;2024-02-15T07:41:15;99850.40;;;14.75;50.96
73242;BME280;65659;49.234;-2.094;2024-02-15T07:43:40;99847.56;;;14.77;50.92
73242;BME280;65659;49.234;-2.094;2024-02-15T07:46:06;99851.09;;;14.81;50.79
73242;BME280;65659;49.234;-2.094;2024-02-15T07:48:37;99841.16;;;14.89;50.64
73242;BME280;65659;49.234;-2.094;2024-02-15T07:51:03;99841.78;;;14.39;50.63
73242;BME280;65659;49.234;-2.094;2024-02-15T07:53:23;99837.14;;;14.90;50.47
73242;BME280;65659;49.234;-2.094;2024-02-15T07:55:48;99833.65;;;14.74;50.35
73242;BME280;65659;49.234;-2.094;2024-02-15T07:58:14;99831.35;;;14.66;50.14
73242;BME280;65659;49.234;-2.094;2024-02-15T08:00:40;99829.33;;;14.38;49.77
73242;BME280;65659;49.234;-2.094;2024-02-15T08:03:05;99820.23;;;14.64;49.32
73242;BME280;65659;49.234;-2.094;2024-02-15T08:05:30;99818.99;;;14.79;49.08
73242;BME280;65659;49.234;-2.094;2024-02-15T08:07:56;99812.08;;;14.91;48.88
73242;BME280;65659;49.234;-2.094;2024-02-15T08:10:21;99815.53;;;14.88;48.58
73242;BME280;65659;49.234;-2.094;2024-02-15T08:12:47;99810.63;;;14.85;48.30
73242;BME280;65659;49.234;-2.094;2024-02-15T08:15:13;99799.31;;;15.17;48.05
73242;BME280;65659;49.234;-2.094;2024-02-15T08:17:39;99804.10;;;15.08;47.86
73242;BME280;65659;49.234;-2.094;2024-02-15T08:20:05;99800.48;;;15.30;47.42
73242;BME280;65659;49.234;-2.094;2024-02-15T08:22:30;99797.33;;;15.35;47.30
73242;BME280;65659;49.234;-2.094;2024-02-15T08:24:55;99796.77;;;14.92;47.22
73242;BME280;65659;49.234;-2.094;2024-02-15T08:27:21;99797.04;;;15.08;46.81
73242;BME280;65659;49.234;-2.094;2024-02-15T08:29:48;99796.48;;;14.89;46.35
73242;BME280;65659;49.234;-2.094;2024-02-15T08:32:13;99799.38;;;15.13;45.88
73242;BME280;65659;49.234;-2.094;2024-02-15T08:34:39;99795.51;;;15.22;45.60
73242;BME280;65659;49.234;-2.094;2024-02-15T08:37:05;99794.04;;;15.07;45.50
73242;BME280;65659;49.234;-2.094;2024-02-15T08:39:30;99789.42;;;15.34;45.33
73242;BME280;65659;49.234;-2.094;2024-02-15T08:41:56;99782.19;;;15.36;45.33
73242;BME280;65659;49.234;-2.094;2024-02-15T08:44:23;99785.16;;;15.39;45.24
73242;BME280;65659;49.234;-2.094;2024-02-15T08:46:48;99780.55;;;15.57;44.91
73242;BME280;65659;49.234;-2.094;2024-02-15T08:49:14;99779.47;;;15.57;44.73
73242;BME280;65659;49.234;-2.094;2024-02-15T08:51:39;99774.85;;;15.27;44.75
73242;BME280;65659;49.234;-2.094;2024-02-15T08:54:05;99769.96;;;15.17;45.05
73242;BME280;65659;49.234;-2.094;2024-02-15T08:56:31;99766.52;;;15.47;45.00
73242;BME280;65659;49.234;-2.094;2024-02-15T08:58:57;99768.89;;;15.63;44.65
73242;BME280;65659;49.234;-2.094;2024-02-15T09:01:23;99758.16;;;15.42;44.72
73242;BME280;65659;49.234;-2.094;2024-02-15T09:03:49;99761.92;;;15.23;44.68
73242;BME280;65659;49.234;-2.094;2024-02-15T09:06:15;99761.41;;;15.46;44.64
73242;BME280;65659;49.234;-2.094;2024-02-15T09:08:45;99760.02;;;16.21;44.51
73242;BME280;65659;49.234;-2.094;2024-02-15T09:11:06;99754.57;;;15.58;44.73
73242;BME280;65659;49.234;-2.094;2024-02-15T09:13:32;99751.77;;;15.52;44.46
73242;BME280;65659;49.234;-2.094;2024-02-15T09:15:58;99742.33;;;15.34;44.49
73242;BME280;65659;49.234;-2.094;2024-02-15T09:18:24;99747.04;;;15.93;44.46
73242;BME280;65659;49.234;-2.094;2024-02-15T09:20:49;99739.60;;;15.66;44.25
73242;BME280;65659;49.234;-2.094;2024-02-15T09:23:15;99746.20;;;15.60;43.86
73242;BME280;65659;49.234;-2.094;2024-02-15T09:25:42;99741.83;;;15.75;44.00
73242;BME280;65659;49.234;-2.094;2024-02-15T09:28:06;99737.47;;;15.49;43.84
73242;BME280;65659;49.234;-2.094;2024-02-15T09:30:45;99735.98;;;16.45;43.61
73242;BME280;65659;49.234;-2.094;2024-02-15T09:32:58;99730.64;;;15.92;44.53
73242;BME280;65659;49.234;-2.094;2024-02-15T09:35:26;99722.01;;;15.48;44.41
73242;BME280;65659;49.234;-2.094;2024-02-15T09:37:51;99716.57;;;15.63;44.02
73242;BME280;65659;49.234;-2.094;2024-02-15T09:40:16;99700.28;;;15.31;43.77
73242;BME280;65659;49.234;-2.094;2024-02-15T09:42:43;99708.88;;;15.38;43.63
73242;BME280;65659;49.234;-2.094;2024-02-15T09:45:07;99715.12;;;15.98;43.28
73242;BME280;65659;49.234;-2.094;2024-02-15T09:47:36;99712.24;;;15.98;43.12
73242;BME280;65659;49.234;-2.094;2024-02-15T09:50:00;99717.57;;;15.90;43.27
73242;BME280;65659;49.234;-2.094;2024-02-15T09:52:25;99708.48;;;15.95;43.31
73242;BME280;65659;49.234;-2.094;2024-02-15T09:54:49;99709.82;;;15.75;43.44
73242;BME280;65659;49.234;-2.094;2024-02-15T09:57:16;99700.12;;;15.65;43.36
73242;BME280;65659;49.234;-2.094;2024-02-15T09:59:42;99686.70;;;16.03;43.27
73242;BME280;65659;49.234;-2.094;2024-02-15T10:02:07;99689.94;;;16.17;43.11
73242;BME280;65659;49.234;-2.094;2024-02-15T10:04:33;99700.65;;;16.24;42.45
73242;BME280;65659;49.234;-2.094;2024-02-15T10:06:59;99704.98;;;15.95;42.90
73242;BME280;65659;49.234;-2.094;2024-02-15T10:09:28;99705.03;;;16.27;42.57
73242;BME280;65659;49.234;-2.094;2024-02-15T10:11:55;99688.84;;;16.35;42.56
73242;BME280;65659;49.234;-2.094;2024-02-15T10:14:16;99689.13;;;16.47;42.34
73242;BME280;65659;49.234;-2.094;2024-02-15T10:16:44;99690.57;;;16.56;42.49
73242;BME280;65659;49.234;-2.094;2024-02-15T10:19:10;99691.07;;;16.24;42.39
73242;BME280;65659;49.234;-2.094;2024-02-15T10:21:35;99693.98;;;16.91;42.26
73242;BME280;65659;49.234;-2.094;2024-02-15T10:24:08;99693.24;;;16.82;41.89
73242;BME280;65659;49.234;-2.094;2024-02-15T10:26:25;99695.41;;;16.70;42.00
73242;BME280;65659;49.234;-2.094;2024-02-15T10:31:18;99690.47;;;17.04;41.44
73242;BME280;65659;49.234;-2.094;2024-02-15T10:33:46;99701.38;;;16.89;41.60
73242;BME280;65659;49.234;-2.094;2024-02-15T10:36:10;99709.97;;;17.05;41.13
73242;BME280;65659;49.234;-2.094;2024-02-15T10:38:34;99710.74;;;17.10;41.50
73242;BME280;65659;49.234;-2.094;2024-02-15T10:41:04;99693.76;;;16.82;41.17
73242;BME280;65659;49.234;-2.094;2024-02-15T10:43:25;99696.18;;;16.91;41.25
73242;BME280;65659;49.234;-2.094;2024-02-15T10:45:50;99689.31;;;16.94;41.14
73242;BME280;65659;49.234;-2.094;2024-02-15T10:48:17;99692.42;;;17.37;40.77
73242;BME280;65659;49.234;-2.094;2024-02-15T10:50:43;99700.39;;;17.41;40.88
73242;BME280;65659;49.234;-2.094;2024-02-15T10:53:14;99696.74;;;16.96;40.83
73242;BME280;65659;49.234;-2.094;2024-02-15T10:55:38;99695.31;;;16.79;41.05
73242;BME280;65659;49.234;-2.094;2024-02-15T10:58:01;99701.69;;;16.94;40.76
73242;BME280;65659;49.234;-2.094;2024-02-15T11:00:25;99693.56;;;16.80;40.75
73242;BME280;65659;49.234;-2.094;2024-02-15T11:03:01;99698.25;;;16.94;40.80
73242;BME280;65659;49.234;-2.094;2024-02-15T11:05:16;99701.36;;;16.82;40.98
73242;BME280;65659;49.234;-2.094;2024-02-15T11:07:48;99695.70;;;16.69;40.89
73242;BME280;65659;49.234;-2.094;2024-02-15T11:10:07;99703.92;;;16.78;40.99
73242;BME280;65659;49.234;-2.094;2024-02-15T11:12:32;99701.77;;;16.68;41.00
73242;BME280;65659;49.234;-2.094;2024-02-15T11:14:57;99701.80;;;16.53;41.26
73242;BME280;65659;49.234;-2.094;2024-02-15T11:19:49;99693.54;;;16.48;41.02
73242;BME280;65659;49.234;-2.094;2024-02-15T11:22:16;99691.36;;;16.80;40.99
73242;BME280;65659;49.234;-2.094;2024-02-15T11:24:47;99681.43;;;16.73;41.13
73242;BME280;65659;49.234;-2.094;2024-02-15T11:27:10;99676.38;;;17.22;40.88
73242;BME280;65659;49.234;-2.094;2024-02-15T11:29:49;99675.00;;;16.71;41.29
73242;BME280;65659;49.234;-2.094;2024-02-15T11:31:58;99660.66;;;17.20;41.14
73242;BME280;65659;49.234;-2.094;2024-02-15T11:34:42;99656.10;;;17.03;40.88
73242;BME280;65659;49.234;-2.094;2024-02-15T11:36:49;99655.34;;;17.17;40.80
73242;BME280;65659;49.234;-2.094;2024-02-15T11:41:42;99651.65;;;17.49;40.82
73242;BME280;65659;49.234;-2.094;2024-02-15T11:44:06;99643.62;;;17.61;40.29
73242;BME280;65659;49.234;-2.094;2024-02-15T11:46:32;99640.01;;;17.39;40.46
73242;BME280;65659;49.234;-2.094;2024-02-15T11:48:57;99635.02;;;18.06;40.30
73242;BME280;65659;49.234;-2.094;2024-02-15T11:51:28;99625.47;;;17.81;40.18
73242;BME280;65659;49.234;-2.094;2024-02-15T11:54:00;99617.26;;;17.93;40.08
73242;BME280;65659;49.234;-2.094;2024-02-15T11:56:16;99615.97;;;17.85;39.93
73242;BME280;65659;49.234;-2.094;2024-02-15T11:58:42;99602.76;;;17.82;39.99
73242;BME280;65659;49.234;-2.094;2024-02-15T12:01:08;99606.22;;;18.03;39.62
73242;BME280;65659;49.234;-2.094;2024-02-15T12:03:34;99603.73;;;18.15;39.49
73242;BME280;65659;49.234;-2.094;2024-02-15T12:05:59;99595.91;;;18.32;39.54
73242;BME280;65659;49.234;-2.094;2024-02-15T12:08:25;99603.18;;;18.19;39.56
73242;BME280;65659;49.234;-2.094;2024-02-15T12:10:57;99598.82;;;17.90;39.26
73242;BME280;65659;49.234;-2.094;2024-02-15T12:13:19;99594.05;;;18.02;39.31
73242;BME280;65659;49.234;-2.094;2024-02-15T12:15:40;99603.75;;;17.57;39.41
73242;BME280;65659;49.234;-2.094;2024-02-15T12:18:16;99601.27;;;18.05;39.39
73242;BME280;65659;49.234;-2.094;2024-02-15T12:20:32;99593.63;;;17.94;39.51
73242;BME280;65659;49.234;-2.094;2024-02-15T12:22:59;99582.17;;;17.96;39.66
73242;BME280;65659;49.234;-2.094;2024-02-15T12:25:24;99586.73;;;17.63;39.75
73242;BME280;65659;49.234;-2.094;2024-02-15T12:27:56;99595.30;;;17.63;40.11
73242;BME280;65659;49.234;-2.094;2024-02-15T12:30:20;99588.86;;;17.68;39.78
73242;BME280;65659;49.234;-2.094;2024-02-15T12:32:43;99595.36;;;17.74;40.06
73242;BME280;65659;49.234;-2.094;2024-02-15T12:35:12;99590.66;;;17.33;40.22
73242;BME280;65659;49.234;-2.094;2024-02-15T12:37:32;99591.27;;;17.61;40.04
73242;BME280;65659;49.234;-2.094;2024-02-15T12:42:24;99592.61;;;16.98;40.27
73242;BME280;65659;49.234;-2.094;2024-02-15T12:44:52;99603.88;;;17.43;40.37